Proud — 9HWA9 — position and weather

sailwx.info

Track history (hours):
 
Tides and Currents Weather Stations Pressure Air Temp Water Temp Dewpoint Dewpoint Depression Visibility Wind Speed Wind Dir Waves Ship Positions

Proud

Last reported at 2015-May-24 08:28 UTC. Time now 2015-May-29 14:20 UTC.
Position S 33°52' E 026°47'.

Length 292 m; draft 10.6 m.

Type: Cargo ship. MMSI: 249619000.

Date/timePositionNaut miles runAvg speedWind from/ knotsBaromVisibWave heightAir tempDewpointWater temp
2015-May-24 08:28S 33°52' E 026°47'26213.8
2015-May-23 13:26S 30°56' E 030°37'1415.9
2015-May-23 12:34S 30°44' E 030°45'3414.1
2015-May-23 10:09S 30°14' E 031°04'812.8
2015-May-23 09:33S 30°08' E 031°08'1211.8
2015-May-23 08:33S 29°56' E 031°10'4 3.7
2015-May-23 07:33S 29°53' E 031°09'1 0.9
2015-May-23 06:33S 29°53' E 031°09'2 1.6
2015-May-23 05:33S 29°55' E 031°09'1 1.3
2015-May-23 04:33S 29°55' E 031°08'8 7.7
2015-May-23 03:33S 29°50' E 031°15'1110.7
2015-May-23 02:33S 29°43' E 031°24'1111.3
2015-May-23 01:33S 29°36' E 031°35'1312.4
2015-May-23 00:32S 29°29' E 031°46'1313.0
2015-May-22 23:33S 29°21' E 031°58'6114.2
2015-May-22 19:16S 28°36' E 032°45'  
Track history (hours):
 
Tides and Currents Weather Stations Pressure Air Temp Water Temp Dewpoint Dewpoint Depression Visibility Wind Speed Wind Dir Waves Ship Positions

Proud

Last reported at 2015-May-24 08:28 UTC. Time now 2015-May-29 14:20 UTC.
Position S 33°52' E 026°47'.

Length 292 m; draft 10.6 m.

Type: Cargo ship. MMSI: 249619000.

Date/timePositionNaut miles runAvg speedWind from/ knotsBaromVisibWave heightAir tempDewpointWater temp
2015-May-24 08:28S 33°52' E 026°47'26213.8
2015-May-23 13:26S 30°56' E 030°37'1415.9
2015-May-23 12:34S 30°44' E 030°45'3414.1
2015-May-23 10:09S 30°14' E 031°04'812.8
2015-May-23 09:33S 30°08' E 031°08'1211.8
2015-May-23 08:33S 29°56' E 031°10'4 3.7
2015-May-23 07:33S 29°53' E 031°09'1 0.9
2015-May-23 06:33S 29°53' E 031°09'2 1.6
2015-May-23 05:33S 29°55' E 031°09'1 1.3
2015-May-23 04:33S 29°55' E 031°08'8 7.7
2015-May-23 03:33S 29°50' E 031°15'1110.7
2015-May-23 02:33S 29°43' E 031°24'1111.3
2015-May-23 01:33S 29°36' E 031°35'1312.4
2015-May-23 00:32S 29°29' E 031°46'1313.0
2015-May-22 23:33S 29°21' E 031°58'6114.2
2015-May-22 19:16S 28°36' E 032°45'  

Dump ship's entire track history